West Union, SC (29696)

06:19 AM EST del 25 Febbraio 2017 (GMT -0500)
KJ4YLO Beaver Lake | | Change Station
Avvisi attivi: Special Statement

Alt. 1000 ft 34.82 °N, 83.02 °W | Updated 1 minute ago

Parzialmente nuvoloso
Parzialmente nuvoloso
55.0 °F
Sembra 55.0 °F
N
0.0
Vento Variabile Vento da OSO
Gusts 0.0 mph

Oggi
Massima -- | Minima -- °F
--% Possibilità di precip.
Ieri
Massima -- | Minima -- °F
Precip. -- in
Pressione 29.71 in
Visibilità 10.0 miglia
Nuvole Sereno
Punto di rugiada 52 °F
Umidità 91%
Piovosità 0.00 in
Spessore del manto nevoso Non disponibile.
7:05 AM 6:24 PM
Luna calante, 2% visible
METAR KCEU 251054Z AUTO VRB03KT 10SM CLR 16/12 A2973 RMK AO2 SLP059 T01610122
Pressione 29.71 in
Visibilità 10.0 miglia
Nuvole Sereno
Punto di rugiada 52 °F
Umidità 91%
Piovosità 0.00 in
Spessore del manto nevoso Non disponibile.
7:05 AM 6:24 PM
Luna calante, 2% visible
METAR KCEU 251054Z AUTO VRB03KT 10SM CLR 16/12 A2973 RMK AO2 SLP059 T01610122

Get Your Daily Forecast Email!

Thanks for signing up!

Be on the lookout for a verification email in your inbox.

You'll start receiving the daily forecast at 8 AM.

×

10-Day Weather Forecast

Almanac

Astronomia

Feb. 25, 2017 Alba Tramonto
Ora attuale
Crepuscolo civile
Crepuscolo nautico
Crepuscolo astronomico
Luna
Estensione della luce visibile
Lunghezza del giorno
Tomorrow will be .
, % of the Moon is Illuminated

Gli estremi di oggi

State Highs State Lows

Community

WunderPhotos

Upload Photos

1,962,540 foto caricate!

WunderBlog® & News

Nearby

Qualità dell'aria

  Qualità dell'aria Indice AQ Inquinante
Not available.

Profondità neve

Stazione Profondità Altitudine

Attività sismica

Città  Distanza Mag. Data & Ora
Minimo Magnitudo Mostrato è 2.5.

Temperature delle acque costiere

Località Temperatura

Stations

Stazioni meteo nelle vicinanze

Ubicazione della stazione Temp. Raffreddamento del vento Punto di rugiada Umidità Vento Precip. Alt. Aggiornato Tipo
                   

Watches & Warnings

Special Statement
Issued: 03:18 EST Feb. 25, 2017 – National Weather Service

... Fire danger statement in effect across upstate South Carolina from
noon EST today through this afternoon...

Very dry conditions will continue across the upstate of South
Carolina today. Temperatures warming into the upper 60s and lower
70s combined with a very dry airmass moving into the region will
allow relative humidity values to lower to between 25 to 30
percent for several hours during the afternoon, with some
locations dropping below 25 percent. Winds will increase to
between 15 to 20 mph with gusts 30 to 35 mph. While fuels will be
marginal, the combination of winds and low relative humidity will
increase fire danger.

Please refer to your local burn permitting authorities on whether
you can burn on Saturday. If you do burn, use caution since fires
can quickly get out of hand under these conditions.